createdAt,value
2023-01-04T00:01:18.664Z,6.40
2023-01-04T00:03:46.034Z,6.20
2023-01-04T00:06:14.955Z,6.30
2023-01-04T00:08:42.027Z,6.40
2023-01-04T00:11:17.883Z,6.40
2023-01-04T00:13:45.278Z,6.40
2023-01-04T00:16:17.777Z,6.40
2023-01-04T00:18:44.791Z,6.40
2023-01-04T00:21:19.679Z,6.30
2023-01-04T00:23:48.315Z,6.30
2023-01-04T00:26:21.211Z,6.20
2023-01-04T00:28:53.962Z,6.20
2023-01-04T00:31:21.843Z,6.20
2023-01-04T00:33:48.707Z,6.20
2023-01-04T00:36:15.956Z,6.10
2023-01-04T00:38:42.963Z,6.10
2023-01-04T00:41:18.872Z,6.10
2023-01-04T00:43:59.708Z,6.10
2023-01-04T00:46:26.380Z,6.20
2023-01-04T00:48:58.218Z,6.30
2023-01-04T00:51:28.471Z,6.30
2023-01-04T00:53:55.351Z,6.40
2023-01-04T00:56:22.062Z,6.30
2023-01-04T00:58:48.839Z,6.30
2023-01-04T01:01:15.654Z,6.30
2023-01-04T01:03:44.333Z,6.30
2023-01-04T01:06:12.239Z,6.50
2023-01-04T01:08:39.033Z,6.50
2023-01-04T01:11:09.360Z,6.60
2023-01-04T01:13:37.199Z,6.60
2023-01-04T01:16:06.558Z,6.70
2023-01-04T01:18:35.048Z,6.60
2023-01-04T01:21:05.556Z,6.50
2023-01-04T01:23:32.604Z,6.50
2023-01-04T01:26:04.811Z,6.60
2023-01-04T01:28:31.947Z,6.60
2023-01-04T01:31:02.393Z,6.60
2023-01-04T01:33:33.903Z,6.60
2023-01-04T01:36:02.021Z,6.60
2023-01-04T01:38:28.748Z,6.60
2023-01-04T01:40:55.461Z,6.50
2023-01-04T01:43:24.030Z,6.30
2023-01-04T01:45:54.524Z,6.30
2023-01-04T01:48:29.112Z,6.40
2023-01-04T01:51:01.744Z,6.30
2023-01-04T01:53:32.046Z,6.50
2023-01-04T01:56:00.502Z,6.30
2023-01-04T01:58:39.248Z,6.40
2023-01-04T02:01:06.532Z,6.50
2023-01-04T02:03:39.104Z,6.50
2023-01-04T02:06:09.985Z,6.40
2023-01-04T02:08:38.243Z,6.50
2023-01-04T02:11:05.703Z,6.50
2023-01-04T02:13:54.220Z,6.50
2023-01-04T02:16:29.076Z,6.40
2023-01-04T02:19:17.144Z,6.40
2023-01-04T02:21:46.770Z,6.40
2023-01-04T02:24:46.317Z,6.40
2023-01-04T02:27:33.536Z,6.40
2023-01-04T02:30:15.215Z,6.40
2023-01-04T02:33:10.270Z,6.40
2023-01-04T02:36:04.699Z,6.50
2023-01-04T02:38:45.452Z,6.40
2023-01-04T02:41:24.631Z,6.30
2023-01-04T02:44:20.517Z,6.40
2023-01-04T02:46:53.298Z,6.40
2023-01-04T02:49:38.744Z,6.20
2023-01-04T02:52:05.424Z,6.20
2023-01-04T02:54:32.885Z,6.20
2023-01-04T02:57:06.211Z,6.20
2023-01-04T02:59:51.543Z,6.30
2023-01-04T03:03:02.463Z,6.20
2023-01-04T03:05:55.234Z,6.30
2023-01-04T03:08:31.764Z,6.40
2023-01-04T03:11:01.703Z,6.40
2023-01-04T03:13:35.779Z,6.40
2023-01-04T03:16:13.568Z,6.30
2023-01-04T03:18:47.651Z,6.40
2023-01-04T03:21:16.642Z,6.30
2023-01-04T03:24:04.279Z,6.40
2023-01-04T03:26:57.549Z,6.40
2023-01-04T03:30:11.252Z,6.50
2023-01-04T03:33:12.405Z,6.60
2023-01-04T03:35:46.618Z,6.60
2023-01-04T03:38:44.679Z,6.70
2023-01-04T03:41:47.991Z,6.70
2023-01-04T03:45:10.394Z,6.50
2023-01-04T03:48:09.755Z,6.50
2023-01-04T03:50:42.364Z,6.70
2023-01-04T03:53:09.953Z,6.70
2023-01-04T03:55:39.151Z,6.60
2023-01-04T03:58:05.790Z,6.60
2023-01-04T04:00:34.188Z,6.60
2023-01-04T04:03:07.190Z,6.60
2023-01-04T04:05:58.552Z,6.80
2023-01-04T04:08:28.954Z,6.60
2023-01-04T04:11:19.079Z,6.60
2023-01-04T04:13:50.644Z,6.60
2023-01-04T04:16:18.050Z,6.80
2023-01-04T04:18:44.795Z,6.90
2023-01-04T04:21:11.439Z,6.90
2023-01-04T04:23:38.091Z,7.00
2023-01-04T04:26:05.048Z,7.10
2023-01-04T04:28:31.893Z,7.00
2023-01-04T04:30:58.655Z,7.00
2023-01-04T04:33:25.594Z,6.90
2023-01-04T04:35:54.237Z,6.80
2023-01-04T04:38:21.839Z,6.90
2023-01-04T04:41:07.476Z,6.90
2023-01-04T04:43:34.975Z,7.10
2023-01-04T04:46:02.237Z,6.90
2023-01-04T04:48:28.905Z,6.90
2023-01-04T04:50:55.596Z,6.90
2023-01-04T04:53:22.333Z,7.00
2023-01-04T04:55:51.872Z,7.10
2023-01-04T04:58:18.585Z,7.00
2023-01-04T05:00:45.270Z,7.00
2023-01-04T05:03:12.193Z,7.00
2023-01-04T05:05:38.996Z,7.10
2023-01-04T05:08:05.642Z,7.20
2023-01-04T05:10:32.326Z,7.20
2023-01-04T05:13:01.711Z,7.20
2023-01-04T05:15:37.219Z,7.00
2023-01-04T05:18:05.843Z,7.10
2023-01-04T05:20:32.789Z,7.10
2023-01-04T05:22:59.657Z,7.00
2023-01-04T05:25:26.548Z,7.20
2023-01-04T05:27:53.622Z,7.20
2023-01-04T05:30:39.339Z,7.10
2023-01-04T05:33:06.829Z,7.10
2023-01-04T05:35:33.540Z,7.00
2023-01-04T05:38:00.614Z,7.00
2023-01-04T05:40:27.296Z,6.90
2023-01-04T05:42:54.049Z,6.90
2023-01-04T05:45:22.112Z,6.90
2023-01-04T05:47:53.520Z,6.80
2023-01-04T05:50:22.676Z,6.90
2023-01-04T05:52:50.066Z,6.90
2023-01-04T05:55:17.125Z,6.80
2023-01-04T05:57:43.818Z,6.80
2023-01-04T06:00:12.178Z,6.80
2023-01-04T06:02:43.813Z,6.90
2023-01-04T06:05:11.940Z,6.90
2023-01-04T06:07:39.919Z,6.70
2023-01-04T06:10:08.294Z,6.70
2023-01-04T06:12:35.021Z,6.70
2023-01-04T06:15:01.977Z,6.70
2023-01-04T06:17:28.651Z,6.70
2023-01-04T06:19:55.337Z,6.80
2023-01-04T06:22:22.038Z,6.70
2023-01-04T06:24:48.716Z,6.70
2023-01-04T06:27:15.454Z,6.80
2023-01-04T06:29:42.199Z,6.90
2023-01-04T06:32:08.988Z,6.90
2023-01-04T06:34:35.779Z,6.90
2023-01-04T06:37:02.513Z,7.00
2023-01-04T06:39:29.527Z,7.00
2023-01-04T06:42:03.702Z,7.00
2023-01-04T06:44:32.713Z,7.00
2023-01-04T06:46:59.453Z,6.80
2023-01-04T06:49:26.075Z,6.90
2023-01-04T06:51:52.703Z,6.90
2023-01-04T06:54:19.338Z,6.90
2023-01-04T06:56:46.043Z,6.80
2023-01-04T06:59:12.663Z,6.90
2023-01-04T07:01:39.424Z,7.00
2023-01-04T07:04:06.212Z,7.10
2023-01-04T07:06:32.915Z,7.00
2023-01-04T07:08:59.597Z,7.00
2023-01-04T07:11:26.262Z,7.10
2023-01-04T07:13:53.003Z,7.20
2023-01-04T07:16:20.445Z,7.30
2023-01-04T07:18:47.617Z,7.20
2023-01-04T07:21:14.637Z,7.10
2023-01-04T07:23:41.345Z,7.10
2023-01-04T07:26:08.025Z,7.10
2023-01-04T07:28:53.172Z,7.20
2023-01-04T07:31:19.913Z,7.10
2023-01-04T07:33:49.732Z,7.10
2023-01-04T07:36:16.493Z,7.30
2023-01-04T07:38:43.918Z,7.30
2023-01-04T07:41:11.017Z,7.30
2023-01-04T07:43:37.714Z,7.40
2023-01-04T07:46:04.429Z,7.30
2023-01-04T07:48:31.239Z,7.30
2023-01-04T07:50:57.929Z,7.40
2023-01-04T07:53:24.648Z,7.40
2023-01-04T07:55:56.474Z,7.30
2023-01-04T07:58:23.171Z,7.40
2023-01-04T08:00:50.249Z,7.50
2023-01-04T08:03:17.137Z,7.50
2023-01-04T08:05:44.377Z,7.50
2023-01-04T08:08:11.000Z,7.30
2023-01-04T08:10:37.645Z,7.50
2023-01-04T08:13:04.291Z,7.40
2023-01-04T08:15:31.014Z,7.40
2023-01-04T08:17:57.831Z,7.40
2023-01-04T08:20:24.464Z,7.50
2023-01-04T08:22:51.102Z,7.60
2023-01-04T08:25:17.807Z,7.60
2023-01-04T08:27:44.527Z,7.60
2023-01-04T08:30:11.339Z,7.70
2023-01-04T08:32:39.642Z,7.40
2023-01-04T08:35:06.454Z,7.30
2023-01-04T08:37:34.938Z,7.20
2023-01-04T08:40:01.835Z,7.30
2023-01-04T08:42:31.440Z,7.20
2023-01-04T08:45:01.360Z,7.10
2023-01-04T08:47:30.570Z,7.20
2023-01-04T08:49:57.504Z,7.30
2023-01-04T08:52:24.435Z,7.30
2023-01-04T08:54:51.378Z,7.30
2023-01-04T08:57:18.737Z,7.30
2023-01-04T08:59:45.541Z,7.30
2023-01-04T09:02:32.860Z,7.40
2023-01-04T09:05:00.881Z,7.50
2023-01-04T09:07:31.563Z,7.50
2023-01-04T09:09:58.312Z,7.40
2023-01-04T09:12:24.999Z,7.40
2023-01-04T09:14:51.634Z,7.50
2023-01-04T09:17:18.294Z,7.50
2023-01-04T09:19:44.976Z,7.70
2023-01-04T09:22:11.667Z,7.70
2023-01-04T09:24:38.395Z,7.70
2023-01-04T09:27:05.111Z,7.70
2023-01-04T09:29:31.985Z,7.80
2023-01-04T09:31:58.718Z,7.70
2023-01-04T09:34:25.458Z,7.70
2023-01-04T09:36:52.291Z,7.60
2023-01-04T09:39:22.860Z,7.80
2023-01-04T09:41:57.209Z,7.90
2023-01-04T09:47:34.911Z,7.80
2023-01-04T09:50:06.922Z,7.90
2023-01-04T09:52:50.865Z,7.90
2023-01-04T09:55:41.606Z,7.90
2023-01-04T09:58:22.143Z,7.80
2023-01-04T10:01:00.512Z,7.90
2023-01-04T10:03:34.060Z,8.00
2023-01-04T10:06:01.771Z,8.00
2023-01-04T10:08:31.215Z,8.10
2023-01-04T10:11:26.510Z,8.10
2023-01-04T10:14:11.184Z,8.00
2023-01-04T10:22:59.923Z,8.30
2023-01-04T10:25:42.800Z,8.20
2023-01-04T10:28:34.875Z,8.20
2023-01-04T10:31:39.572Z,8.10
2023-01-04T10:34:30.099Z,8.20
2023-01-04T10:37:11.351Z,8.20
2023-01-04T10:39:38.251Z,8.20
2023-01-04T10:42:29.683Z,8.20
2023-01-04T10:45:09.617Z,8.20
2023-01-04T10:48:02.578Z,8.20
2023-01-04T10:50:47.868Z,8.40
2023-01-04T10:53:24.754Z,8.40
2023-01-04T10:56:25.969Z,8.50
2023-01-04T10:58:51.826Z,8.50
2023-01-04T11:01:29.810Z,8.30
2023-01-04T11:04:16.135Z,8.20
2023-01-04T11:06:52.732Z,8.20
2023-01-04T11:09:25.619Z,8.30
2023-01-04T11:11:56.334Z,8.30
2023-01-04T11:14:25.198Z,8.30
2023-01-04T11:16:56.391Z,8.40
2023-01-04T11:19:23.076Z,8.40
2023-01-04T11:21:58.187Z,8.50
2023-01-04T11:24:33.257Z,8.60
2023-01-04T11:27:06.397Z,8.50
2023-01-04T11:29:40.725Z,8.60
2023-01-04T11:32:34.751Z,8.60
2023-01-04T11:35:01.465Z,8.70
2023-01-04T11:37:29.525Z,8.70
2023-01-04T11:40:16.279Z,8.70
2023-01-04T11:42:44.249Z,8.70
2023-01-04T11:45:37.469Z,8.70
2023-01-04T11:48:12.503Z,8.70
2023-01-04T11:50:51.372Z,8.70
2023-01-04T11:53:30.637Z,8.80
2023-01-04T11:56:16.121Z,8.80
2023-01-04T11:58:44.901Z,8.70
2023-01-04T12:01:21.768Z,8.80
2023-01-04T12:03:48.655Z,8.80
2023-01-04T12:06:24.816Z,8.70
2023-01-04T12:08:51.549Z,8.80
2023-01-04T12:11:34.764Z,8.80
2023-01-04T12:14:03.358Z,8.80
2023-01-04T12:16:52.415Z,8.90
2023-01-04T12:19:21.244Z,8.90
2023-01-04T12:21:52.359Z,8.70
2023-01-04T12:24:30.598Z,8.80
2023-01-04T12:26:58.280Z,8.80
2023-01-04T12:29:24.982Z,8.90
2023-01-04T12:32:05.124Z,8.90
2023-01-04T12:34:31.891Z,8.80
2023-01-04T12:37:06.043Z,9.00
2023-01-04T12:39:44.659Z,8.90
2023-01-04T12:42:19.142Z,8.70
2023-01-04T12:44:46.857Z,8.70
2023-01-04T12:47:37.955Z,8.90
2023-01-04T12:50:12.694Z,8.70
2023-01-04T12:55:31.445Z,8.70
2023-01-04T12:57:59.019Z,8.60
2023-01-04T13:00:50.565Z,8.70
2023-01-04T13:03:17.839Z,8.50
2023-01-04T13:05:57.539Z,8.50
2023-01-04T13:08:24.932Z,8.50
2023-01-04T13:10:56.895Z,8.50
2023-01-04T13:13:47.820Z,8.50
2023-01-04T13:16:52.360Z,8.40
2023-01-04T13:19:24.654Z,8.50
2023-01-04T13:21:52.382Z,8.60
2023-01-04T13:24:49.050Z,8.50
2023-01-04T13:27:19.087Z,8.40
2023-01-04T13:29:46.851Z,8.50
2023-01-04T13:32:26.951Z,8.60
2023-01-04T13:35:01.621Z,8.60
2023-01-04T13:37:32.787Z,8.50
2023-01-04T13:40:04.406Z,8.40
2023-01-04T13:42:34.820Z,8.50
2023-01-04T13:45:21.488Z,8.40
2023-01-04T13:47:51.855Z,8.40
2023-01-04T13:50:35.839Z,8.30
2023-01-04T13:53:08.173Z,8.40
2023-01-04T13:55:38.068Z,8.40
2023-01-04T13:58:07.692Z,8.40
2023-01-04T14:00:52.757Z,8.40
2023-01-04T14:03:31.397Z,8.50
2023-01-04T14:06:34.887Z,8.40
2023-01-04T14:09:16.407Z,8.40
2023-01-04T14:15:15.488Z,8.40
2023-01-04T14:17:49.715Z,8.40
2023-01-04T14:20:19.157Z,8.50
2023-01-04T14:22:45.790Z,8.50
2023-01-04T14:25:30.989Z,8.50
2023-01-04T14:28:19.972Z,8.50
2023-01-04T14:30:52.482Z,8.60
2023-01-04T14:33:36.179Z,8.60
2023-01-04T14:36:11.520Z,8.60
2023-01-04T14:38:55.825Z,8.50
2023-01-04T14:41:26.908Z,8.40
2023-01-04T14:44:09.797Z,8.40
2023-01-04T14:46:36.604Z,8.30
2023-01-04T14:49:03.653Z,8.40
2023-01-04T14:51:37.896Z,8.20
2023-01-04T14:54:06.546Z,8.30
2023-01-04T14:56:34.215Z,8.50
2023-01-04T15:03:14.102Z,8.40
2023-01-04T15:05:44.856Z,8.30
2023-01-04T15:08:12.377Z,8.40
2023-01-04T15:10:39.281Z,8.40
2023-01-04T15:13:05.973Z,8.40
2023-01-04T15:15:35.517Z,8.40
2023-01-04T15:18:02.327Z,8.30
2023-01-04T15:20:29.030Z,8.40
2023-01-04T15:22:55.728Z,8.40
2023-01-04T15:25:22.442Z,8.40
2023-01-04T15:27:50.121Z,8.40
2023-01-04T15:30:16.869Z,8.40
2023-01-04T15:32:43.558Z,8.50
2023-01-04T15:35:16.163Z,8.40
2023-01-04T15:37:46.811Z,8.50
2023-01-04T15:40:16.245Z,8.50
2023-01-04T15:42:58.896Z,8.40
2023-01-04T15:45:36.264Z,8.50
2023-01-04T15:48:04.717Z,8.50
2023-01-04T15:50:34.317Z,8.60
2023-01-04T15:53:01.220Z,8.60
2023-01-04T15:55:34.073Z,8.50
2023-01-04T15:58:03.332Z,8.50
2023-01-04T16:00:29.970Z,8.50
2023-01-04T16:02:57.155Z,8.60
2023-01-04T16:05:23.949Z,8.50
2023-01-04T16:07:50.604Z,8.60
2023-01-04T16:10:17.358Z,8.50
2023-01-04T16:12:54.560Z,8.60
2023-01-04T16:15:23.507Z,8.60
2023-01-04T16:17:50.560Z,8.60
2023-01-04T16:20:18.649Z,8.70
2023-01-04T16:22:46.517Z,8.60
2023-01-04T16:25:13.644Z,8.60
2023-01-04T16:27:41.218Z,8.60
2023-01-04T16:30:12.175Z,8.70
2023-01-04T16:32:42.812Z,8.70
2023-01-04T16:35:11.456Z,8.70
2023-01-04T16:37:38.331Z,8.60
2023-01-04T16:40:07.145Z,8.70
2023-01-04T16:42:35.949Z,8.60
2023-01-04T16:45:02.642Z,8.60
2023-01-04T16:47:29.327Z,8.60
2023-01-04T16:49:55.982Z,8.70
2023-01-04T16:52:26.682Z,8.60
2023-01-04T16:54:53.461Z,8.60
2023-01-04T16:57:20.093Z,8.50
2023-01-04T16:59:47.772Z,8.50
2023-01-04T17:02:14.759Z,8.50
2023-01-04T17:04:41.623Z,8.50
2023-01-04T17:07:08.547Z,8.50
2023-01-04T17:09:35.196Z,8.50
2023-01-04T17:12:36.773Z,8.60
2023-01-04T17:15:07.783Z,8.50
2023-01-04T17:17:37.788Z,8.50
2023-01-04T17:20:06.435Z,8.60
2023-01-04T17:22:34.781Z,8.60
2023-01-04T17:25:02.049Z,8.60
2023-01-04T17:27:28.764Z,8.60
2023-01-04T17:29:55.448Z,8.70
2023-01-04T17:32:22.256Z,8.60
2023-01-04T17:34:49.804Z,8.60
2023-01-04T17:37:16.509Z,8.60
2023-01-04T17:39:43.185Z,8.70
2023-01-04T17:42:09.927Z,8.70
2023-01-04T17:44:36.598Z,8.70
2023-01-04T17:47:03.227Z,8.60
2023-01-04T17:49:32.106Z,8.70
2023-01-04T17:51:59.380Z,8.70
2023-01-04T17:54:26.823Z,8.80
2023-01-04T17:56:53.567Z,8.70
2023-01-04T17:59:20.227Z,8.70
2023-01-04T18:01:47.042Z,8.60
2023-01-04T18:04:13.958Z,8.60
2023-01-04T18:06:40.802Z,8.70
2023-01-04T18:09:09.206Z,8.70
2023-01-04T18:11:36.434Z,8.70
2023-01-04T18:14:06.364Z,8.70
2023-01-04T18:16:56.099Z,8.80
2023-01-04T18:19:29.252Z,8.70
2023-01-04T18:21:56.513Z,8.70
2023-01-04T18:24:39.596Z,8.70
2023-01-04T18:27:29.420Z,8.60
2023-01-04T18:29:56.399Z,8.60
2023-01-04T18:32:24.485Z,8.70
2023-01-04T18:34:51.201Z,8.60
2023-01-04T18:37:18.532Z,8.70
2023-01-04T18:39:46.514Z,8.70
2023-01-04T18:42:13.185Z,8.60
2023-01-04T18:44:47.365Z,8.70
2023-01-04T18:47:15.804Z,8.60
2023-01-04T18:49:42.529Z,8.60
2023-01-04T18:52:09.343Z,8.60
2023-01-04T18:54:36.106Z,8.60
2023-01-04T18:57:03.148Z,8.70
2023-01-04T18:59:30.197Z,8.80
2023-01-04T19:02:00.679Z,8.90
2023-01-04T19:04:29.100Z,8.80
2023-01-04T19:06:55.876Z,8.80
2023-01-04T19:09:22.939Z,8.90
2023-01-04T19:11:49.626Z,8.80
2023-01-04T19:14:16.890Z,8.90
2023-01-04T19:16:43.631Z,8.90
2023-01-04T19:19:10.765Z,8.80
2023-01-04T19:21:37.758Z,8.80
2023-01-04T19:24:04.719Z,8.80
2023-01-04T19:26:31.370Z,8.80
2023-01-04T19:28:58.014Z,8.90
2023-01-04T19:31:24.719Z,8.90
2023-01-04T19:33:51.456Z,8.90
2023-01-04T19:36:19.073Z,8.90
2023-01-04T19:38:45.802Z,8.90
2023-01-04T19:41:21.117Z,8.90
2023-01-04T19:43:48.546Z,8.90
2023-01-04T19:46:15.620Z,8.90
2023-01-04T19:48:43.286Z,8.90
2023-01-04T19:51:16.785Z,8.90
2023-01-04T19:53:44.543Z,8.90
2023-01-04T19:56:13.334Z,8.90
2023-01-04T19:58:40.622Z,8.90
2023-01-04T20:01:07.548Z,8.90
2023-01-04T20:03:34.486Z,8.90
2023-01-04T20:06:03.877Z,8.90
2023-01-04T20:08:30.751Z,8.90
2023-01-04T20:10:59.159Z,8.90
2023-01-04T20:13:27.569Z,8.90
2023-01-04T20:15:54.528Z,8.90
2023-01-04T20:18:22.101Z,8.90
2023-01-04T20:20:48.756Z,8.90
2023-01-04T20:23:16.012Z,9.00
2023-01-04T20:25:47.979Z,8.90
2023-01-04T20:28:16.287Z,8.90
2023-01-04T20:30:43.132Z,8.90
2023-01-04T20:33:10.082Z,9.00
2023-01-04T20:35:41.950Z,9.00
2023-01-04T20:38:09.916Z,9.00
2023-01-04T20:40:37.691Z,9.00
2023-01-04T20:43:23.022Z,9.10
2023-01-04T20:45:49.932Z,9.10
2023-01-04T20:48:16.991Z,9.30
2023-01-04T20:50:43.825Z,9.20
2023-01-04T20:53:11.366Z,9.20
2023-01-04T20:55:40.256Z,9.20
2023-01-04T20:58:15.198Z,9.20
2023-01-04T21:00:43.484Z,9.30
2023-01-04T21:03:11.470Z,9.40
2023-01-04T21:05:40.722Z,9.30
2023-01-04T21:08:07.969Z,9.30
2023-01-04T21:10:35.813Z,9.40
2023-01-04T21:13:03.619Z,9.40
2023-01-04T21:15:30.608Z,9.40
2023-01-04T21:17:57.437Z,9.50
2023-01-04T21:20:24.718Z,9.40
2023-01-04T21:22:51.359Z,9.50
2023-01-04T21:25:18.148Z,9.40
2023-01-04T21:27:44.820Z,9.50
2023-01-04T21:30:12.139Z,9.40
2023-01-04T21:32:38.887Z,9.40
2023-01-04T21:35:06.166Z,9.40
2023-01-04T21:37:33.039Z,9.40
2023-01-04T21:39:59.686Z,9.40
2023-01-04T21:42:26.302Z,9.40
2023-01-04T21:44:53.015Z,9.40
2023-01-04T21:47:19.649Z,9.40
2023-01-04T21:49:46.288Z,9.30
2023-01-04T21:52:13.028Z,9.30
2023-01-04T21:54:39.694Z,9.30
2023-01-04T21:57:09.439Z,9.40
2023-01-04T21:59:36.297Z,9.40
2023-01-04T22:02:03.324Z,9.50
2023-01-04T22:04:30.782Z,9.40
2023-01-04T22:06:57.515Z,9.30
2023-01-04T22:09:24.834Z,9.40
2023-01-04T22:11:51.589Z,9.40
2023-01-04T22:14:18.942Z,9.40
2023-01-04T22:16:45.657Z,9.40
2023-01-04T22:19:13.619Z,9.50
2023-01-04T22:21:40.917Z,9.40
2023-01-04T22:24:10.755Z,9.60
2023-01-04T22:26:37.525Z,9.40
2023-01-04T22:29:04.504Z,9.50
2023-01-04T22:31:31.379Z,9.40
2023-01-04T22:33:58.106Z,9.40
2023-01-04T22:36:24.847Z,9.40
2023-01-04T22:38:53.013Z,9.40
2023-01-04T22:41:21.289Z,9.40
2023-01-04T22:43:53.815Z,9.50
2023-01-04T22:46:20.664Z,9.40
2023-01-04T22:48:47.537Z,9.40
2023-01-04T22:51:16.804Z,9.40
2023-01-04T22:53:43.857Z,9.40
2023-01-04T22:56:21.491Z,9.40
2023-01-04T22:58:53.414Z,9.40
2023-01-04T23:01:26.032Z,9.50
2023-01-04T23:03:53.204Z,9.40
2023-01-04T23:06:21.666Z,9.40
2023-01-04T23:08:53.617Z,9.40
2023-01-04T23:11:20.509Z,9.40
2023-01-04T23:13:47.251Z,9.40
2023-01-04T23:16:16.288Z,9.40
2023-01-04T23:18:43.805Z,9.50
2023-01-04T23:21:10.783Z,9.50
2023-01-04T23:23:37.929Z,9.50
2023-01-04T23:26:25.308Z,9.50
2023-01-04T23:28:52.094Z,9.50
2023-01-04T23:31:21.982Z,9.60
2023-01-04T23:33:53.062Z,9.60
2023-01-04T23:36:22.215Z,9.50
2023-01-04T23:38:52.153Z,9.50
2023-01-04T23:41:19.481Z,9.50
2023-01-04T23:43:46.169Z,9.50
2023-01-04T23:46:15.722Z,9.50
2023-01-04T23:48:42.916Z,9.50
2023-01-04T23:51:12.179Z,9.50
2023-01-04T23:53:38.828Z,9.60
2023-01-04T23:56:07.993Z,9.60
2023-01-04T23:58:34.745Z,9.40
